sensor_id;sensor_type;location;lat;lon;timestamp;temperature;humidity
16267;DHT22;8241;48.786;9.250;2023-04-01T00:01:14;9.40;99.90
16267;DHT22;8241;48.786;9.250;2023-04-01T00:03:43;9.40;99.90
16267;DHT22;8241;48.786;9.250;2023-04-01T00:06:11;9.40;99.90
16267;DHT22;8241;48.786;9.250;2023-04-01T00:08:38;9.40;99.90
16267;DHT22;8241;48.786;9.250;2023-04-01T00:11:05;9.40;99.90
16267;DHT22;8241;48.786;9.250;2023-04-01T00:13:32;9.30;99.90
16267;DHT22;8241;48.786;9.250;2023-04-01T00:15:59;9.40;99.90
16267;DHT22;8241;48.786;9.250;2023-04-01T00:18:26;9.40;99.90
16267;DHT22;8241;48.786;9.250;2023-04-01T00:20:55;9.40;99.90
16267;DHT22;8241;48.786;9.250;2023-04-01T00:23:21;9.40;99.90
16267;DHT22;8241;48.786;9.250;2023-04-01T00:25:48;9.40;99.90
16267;DHT22;8241;48.786;9.250;2023-04-01T00:28:16;9.40;99.90
16267;DHT22;8241;48.786;9.250;2023-04-01T00:30:43;9.40;99.90
16267;DHT22;8241;48.786;9.250;2023-04-01T00:33:10;9.40;99.90
16267;DHT22;8241;48.786;9.250;2023-04-01T00:35:37;9.40;99.90
16267;DHT22;8241;48.786;9.250;2023-04-01T00:38:05;9.40;99.90
16267;DHT22;8241;48.786;9.250;2023-04-01T00:40:32;9.40;99.90
16267;DHT22;8241;48.786;9.250;2023-04-01T00:42:59;9.40;99.90
16267;DHT22;8241;48.786;9.250;2023-04-01T00:45:28;9.40;99.90
16267;DHT22;8241;48.786;9.250;2023-04-01T00:47:56;9.40;99.90
16267;DHT22;8241;48.786;9.250;2023-04-01T00:50:24;9.40;99.90
16267;DHT22;8241;48.786;9.250;2023-04-01T00:52:51;9.40;99.90
16267;DHT22;8241;48.786;9.250;2023-04-01T00:55:20;9.50;99.90
16267;DHT22;8241;48.786;9.250;2023-04-01T00:57:50;9.50;99.90
16267;DHT22;8241;48.786;9.250;2023-04-01T01:00:17;9.50;99.90
16267;DHT22;8241;48.786;9.250;2023-04-01T01:02:44;9.50;99.90
16267;DHT22;8241;48.786;9.250;2023-04-01T01:05:12;9.50;99.90
16267;DHT22;8241;48.786;9.250;2023-04-01T01:07:40;9.50;99.90
16267;DHT22;8241;48.786;9.250;2023-04-01T01:10:13;9.50;99.90
16267;DHT22;8241;48.786;9.250;2023-04-01T01:12:44;9.40;99.90
16267;DHT22;8241;48.786;9.250;2023-04-01T01:15:12;9.40;99.90
16267;DHT22;8241;48.786;9.250;2023-04-01T01:17:48;9.40;99.90
16267;DHT22;8241;48.786;9.250;2023-04-01T01:20:32;9.40;99.90
16267;DHT22;8241;48.786;9.250;2023-04-01T01:23:06;9.40;99.90
16267;DHT22;8241;48.786;9.250;2023-04-01T01:25:40;9.40;99.90
16267;DHT22;8241;48.786;9.250;2023-04-01T01:28:18;9.40;99.90
16267;DHT22;8241;48.786;9.250;2023-04-01T01:30:53;9.40;99.90
16267;DHT22;8241;48.786;9.250;2023-04-01T01:33:25;9.40;99.90
16267;DHT22;8241;48.786;9.250;2023-04-01T01:35:58;9.40;99.90
16267;DHT22;8241;48.786;9.250;2023-04-01T01:38:26;9.40;99.90
16267;DHT22;8241;48.786;9.250;2023-04-01T01:41:03;9.40;99.90
16267;DHT22;8241;48.786;9.250;2023-04-01T01:43:32;9.40;99.90
16267;DHT22;8241;48.786;9.250;2023-04-01T01:46:01;9.40;99.90
16267;DHT22;8241;48.786;9.250;2023-04-01T01:48:30;9.40;99.90
16267;DHT22;8241;48.786;9.250;2023-04-01T01:50:59;9.40;99.90
16267;DHT22;8241;48.786;9.250;2023-04-01T01:53:26;9.40;99.90
16267;DHT22;8241;48.786;9.250;2023-04-01T01:55:53;9.40;99.90
16267;DHT22;8241;48.786;9.250;2023-04-01T01:58:22;9.30;99.90
16267;DHT22;8241;48.786;9.250;2023-04-01T02:00:52;9.30;99.90
16267;DHT22;8241;48.786;9.250;2023-04-01T02:03:19;9.30;99.90
16267;DHT22;8241;48.786;9.250;2023-04-01T02:05:47;9.20;99.90
16267;DHT22;8241;48.786;9.250;2023-04-01T02:08:18;9.20;99.90
16267;DHT22;8241;48.786;9.250;2023-04-01T02:10:47;9.20;99.90
16267;DHT22;8241;48.786;9.250;2023-04-01T02:13:18;9.20;99.90
16267;DHT22;8241;48.786;9.250;2023-04-01T02:15:49;9.20;99.90
16267;DHT22;8241;48.786;9.250;2023-04-01T02:18:17;9.20;99.90
16267;DHT22;8241;48.786;9.250;2023-04-01T02:20:45;9.20;99.90
16267;DHT22;8241;48.786;9.250;2023-04-01T02:23:12;9.20;99.90
16267;DHT22;8241;48.786;9.250;2023-04-01T02:25:41;9.10;99.90
16267;DHT22;8241;48.786;9.250;2023-04-01T02:28:08;9.10;99.90
16267;DHT22;8241;48.786;9.250;2023-04-01T02:30:38;9.10;99.90
16267;DHT22;8241;48.786;9.250;2023-04-01T02:33:06;9.10;99.90
16267;DHT22;8241;48.786;9.250;2023-04-01T02:35:33;9.10;99.90
16267;DHT22;8241;48.786;9.250;2023-04-01T02:38:01;9.10;99.90
16267;DHT22;8241;48.786;9.250;2023-04-01T02:40:27;9.10;99.90
16267;DHT22;8241;48.786;9.250;2023-04-01T02:42:55;9.10;99.90
16267;DHT22;8241;48.786;9.250;2023-04-01T02:45:22;9.10;99.90
16267;DHT22;8241;48.786;9.250;2023-04-01T02:47:49;9.10;99.90
16267;DHT22;8241;48.786;9.250;2023-04-01T02:50:16;9.00;99.90
16267;DHT22;8241;48.786;9.250;2023-04-01T02:52:43;9.00;99.90
16267;DHT22;8241;48.786;9.250;2023-04-01T02:55:10;9.00;99.90
16267;DHT22;8241;48.786;9.250;2023-04-01T02:57:36;8.90;99.90
16267;DHT22;8241;48.786;9.250;2023-04-01T03:00:05;8.90;99.90
16267;DHT22;8241;48.786;9.250;2023-04-01T03:02:37;8.90;99.90
16267;DHT22;8241;48.786;9.250;2023-04-01T03:05:04;8.90;99.90
16267;DHT22;8241;48.786;9.250;2023-04-01T03:07:30;8.90;99.90
16267;DHT22;8241;48.786;9.250;2023-04-01T03:09:57;8.90;99.90
16267;DHT22;8241;48.786;9.250;2023-04-01T03:12:24;9.00;99.90
16267;DHT22;8241;48.786;9.250;2023-04-01T03:14:51;8.90;99.90
16267;DHT22;8241;48.786;9.250;2023-04-01T03:17:19;8.90;99.90
16267;DHT22;8241;48.786;9.250;2023-04-01T03:19:46;8.90;99.90
16267;DHT22;8241;48.786;9.250;2023-04-01T03:22:13;8.90;99.90
16267;DHT22;8241;48.786;9.250;2023-04-01T03:24:40;8.90;99.90
16267;DHT22;8241;48.786;9.250;2023-04-01T03:27:07;8.90;99.90
16267;DHT22;8241;48.786;9.250;2023-04-01T03:29:34;8.90;99.90
16267;DHT22;8241;48.786;9.250;2023-04-01T03:32:00;8.80;99.90
16267;DHT22;8241;48.786;9.250;2023-04-01T03:34:29;8.80;99.90
16267;DHT22;8241;48.786;9.250;2023-04-01T03:36:55;8.80;99.90
16267;DHT22;8241;48.786;9.250;2023-04-01T03:39:22;8.80;99.90
16267;DHT22;8241;48.786;9.250;2023-04-01T03:41:49;8.80;99.90
16267;DHT22;8241;48.786;9.250;2023-04-01T03:44:16;8.80;99.90
16267;DHT22;8241;48.786;9.250;2023-04-01T03:46:46;8.80;99.90
16267;DHT22;8241;48.786;9.250;2023-04-01T03:49:14;8.80;99.90
16267;DHT22;8241;48.786;9.250;2023-04-01T03:51:42;8.90;99.90
16267;DHT22;8241;48.786;9.250;2023-04-01T03:54:10;8.80;99.90
16267;DHT22;8241;48.786;9.250;2023-04-01T03:56:37;8.90;99.90
16267;DHT22;8241;48.786;9.250;2023-04-01T03:59:04;8.90;99.90
16267;DHT22;8241;48.786;9.250;2023-04-01T04:01:32;8.90;99.90
16267;DHT22;8241;48.786;9.250;2023-04-01T04:03:58;8.90;99.90
16267;DHT22;8241;48.786;9.250;2023-04-01T04:06:26;8.90;99.90
16267;DHT22;8241;48.786;9.250;2023-04-01T04:08:54;8.90;99.90
16267;DHT22;8241;48.786;9.250;2023-04-01T04:11:21;8.90;99.90
16267;DHT22;8241;48.786;9.250;2023-04-01T04:13:50;8.80;99.90
16267;DHT22;8241;48.786;9.250;2023-04-01T04:16:18;8.80;99.90
16267;DHT22;8241;48.786;9.250;2023-04-01T04:18:49;8.80;99.90
16267;DHT22;8241;48.786;9.250;2023-04-01T04:21:17;8.80;99.90
16267;DHT22;8241;48.786;9.250;2023-04-01T04:23:45;8.70;99.90
16267;DHT22;8241;48.786;9.250;2023-04-01T04:26:15;8.70;99.90
16267;DHT22;8241;48.786;9.250;2023-04-01T04:28:47;8.70;99.90
16267;DHT22;8241;48.786;9.250;2023-04-01T04:31:17;8.60;99.90
16267;DHT22;8241;48.786;9.250;2023-04-01T04:33:44;8.60;99.90
16267;DHT22;8241;48.786;9.250;2023-04-01T04:36:12;8.50;99.90
16267;DHT22;8241;48.786;9.250;2023-04-01T04:38:39;8.50;99.90
16267;DHT22;8241;48.786;9.250;2023-04-01T04:41:08;8.50;99.90
16267;DHT22;8241;48.786;9.250;2023-04-01T04:43:36;8.40;99.90
16267;DHT22;8241;48.786;9.250;2023-04-01T04:46:04;8.40;99.90
16267;DHT22;8241;48.786;9.250;2023-04-01T04:48:31;8.50;99.90
16267;DHT22;8241;48.786;9.250;2023-04-01T04:50:57;8.40;99.90
16267;DHT22;8241;48.786;9.250;2023-04-01T04:53:24;8.40;99.90
16267;DHT22;8241;48.786;9.250;2023-04-01T04:55:51;8.40;99.90
16267;DHT22;8241;48.786;9.250;2023-04-01T04:58:31;8.40;99.90
16267;DHT22;8241;48.786;9.250;2023-04-01T05:01:04;8.40;99.90
16267;DHT22;8241;48.786;9.250;2023-04-01T05:03:31;8.30;99.90
16267;DHT22;8241;48.786;9.250;2023-04-01T05:05:58;8.30;99.90
16267;DHT22;8241;48.786;9.250;2023-04-01T05:08:25;8.30;99.90
16267;DHT22;8241;48.786;9.250;2023-04-01T05:10:56;8.30;99.90
16267;DHT22;8241;48.786;9.250;2023-04-01T05:13:23;8.30;99.90
16267;DHT22;8241;48.786;9.250;2023-04-01T05:15:50;8.30;99.90
16267;DHT22;8241;48.786;9.250;2023-04-01T05:18:19;8.30;99.90
16267;DHT22;8241;48.786;9.250;2023-04-01T05:20:46;8.30;99.90
16267;DHT22;8241;48.786;9.250;2023-04-01T05:23:13;8.30;99.90
16267;DHT22;8241;48.786;9.250;2023-04-01T05:25:40;8.30;99.90
16267;DHT22;8241;48.786;9.250;2023-04-01T05:28:07;8.40;99.90
16267;DHT22;8241;48.786;9.250;2023-04-01T05:30:34;8.40;99.90
16267;DHT22;8241;48.786;9.250;2023-04-01T05:33:09;8.40;99.90
16267;DHT22;8241;48.786;9.250;2023-04-01T05:35:37;8.40;99.90
16267;DHT22;8241;48.786;9.250;2023-04-01T05:38:04;8.40;99.90
16267;DHT22;8241;48.786;9.250;2023-04-01T05:40:31;8.50;99.90
16267;DHT22;8241;48.786;9.250;2023-04-01T05:42:58;8.50;99.90
16267;DHT22;8241;48.786;9.250;2023-04-01T05:45:26;8.60;99.90
16267;DHT22;8241;48.786;9.250;2023-04-01T05:48:18;8.60;99.90
16267;DHT22;8241;48.786;9.250;2023-04-01T05:50:46;8.60;99.90
16267;DHT22;8241;48.786;9.250;2023-04-01T05:53:13;8.70;99.90
16267;DHT22;8241;48.786;9.250;2023-04-01T05:55:42;8.80;99.90
16267;DHT22;8241;48.786;9.250;2023-04-01T05:58:09;8.80;99.90
16267;DHT22;8241;48.786;9.250;2023-04-01T06:00:38;8.90;99.90
16267;DHT22;8241;48.786;9.250;2023-04-01T06:03:05;9.00;99.90
16267;DHT22;8241;48.786;9.250;2023-04-01T06:05:35;9.10;99.90
16267;DHT22;8241;48.786;9.250;2023-04-01T06:08:09;9.10;99.90
16267;DHT22;8241;48.786;9.250;2023-04-01T06:10:39;9.10;99.90
16267;DHT22;8241;48.786;9.250;2023-04-01T06:13:10;9.10;99.90
16267;DHT22;8241;48.786;9.250;2023-04-01T06:15:45;9.20;99.90
16267;DHT22;8241;48.786;9.250;2023-04-01T06:20:59;9.30;99.90
16267;DHT22;8241;48.786;9.250;2023-04-01T06:23:35;9.30;99.90
16267;DHT22;8241;48.786;9.250;2023-04-01T06:26:12;9.40;99.90
16267;DHT22;8241;48.786;9.250;2023-04-01T06:28:45;9.50;99.90
16267;DHT22;8241;48.786;9.250;2023-04-01T06:31:17;9.50;99.90
16267;DHT22;8241;48.786;9.250;2023-04-01T06:33:50;9.60;99.90
16267;DHT22;8241;48.786;9.250;2023-04-01T06:36:22;9.60;99.90
16267;DHT22;8241;48.786;9.250;2023-04-01T06:38:59;9.70;99.90
16267;DHT22;8241;48.786;9.250;2023-04-01T06:44:16;9.70;99.90
16267;DHT22;8241;48.786;9.250;2023-04-01T06:47:04;9.80;99.90
16267;DHT22;8241;48.786;9.250;2023-04-01T06:50:16;9.80;99.90
16267;DHT22;8241;48.786;9.250;2023-04-01T06:53:09;9.90;99.90
16267;DHT22;8241;48.786;9.250;2023-04-01T06:55:59;9.90;99.90
16267;DHT22;8241;48.786;9.250;2023-04-01T06:58:44;9.90;99.90
16267;DHT22;8241;48.786;9.250;2023-04-01T07:01:13;9.90;99.90
16267;DHT22;8241;48.786;9.250;2023-04-01T07:03:41;9.90;99.90
16267;DHT22;8241;48.786;9.250;2023-04-01T07:06:10;9.90;99.90
16267;DHT22;8241;48.786;9.250;2023-04-01T07:08:47;9.90;99.90
16267;DHT22;8241;48.786;9.250;2023-04-01T07:11:20;9.90;99.90
16267;DHT22;8241;48.786;9.250;2023-04-01T07:14:10;9.90;99.90
16267;DHT22;8241;48.786;9.250;2023-04-01T07:16:41;9.90;99.90
16267;DHT22;8241;48.786;9.250;2023-04-01T07:19:11;9.90;99.90
16267;DHT22;8241;48.786;9.250;2023-04-01T07:21:54;10.00;99.90
16267;DHT22;8241;48.786;9.250;2023-04-01T07:24:32;10.00;99.90
16267;DHT22;8241;48.786;9.250;2023-04-01T07:27:08;10.00;99.90
16267;DHT22;8241;48.786;9.250;2023-04-01T07:29:37;10.00;99.90
16267;DHT22;8241;48.786;9.250;2023-04-01T07:32:18;10.00;99.90
16267;DHT22;8241;48.786;9.250;2023-04-01T07:34:59;10.00;99.90
16267;DHT22;8241;48.786;9.250;2023-04-01T07:37:30;10.00;99.90
16267;DHT22;8241;48.786;9.250;2023-04-01T07:40:01;10.00;99.90
16267;DHT22;8241;48.786;9.250;2023-04-01T07:42:37;10.10;99.90
16267;DHT22;8241;48.786;9.250;2023-04-01T07:45:12;10.00;99.90
16267;DHT22;8241;48.786;9.250;2023-04-01T07:47:45;10.00;99.90
16267;DHT22;8241;48.786;9.250;2023-04-01T07:50:18;10.10;99.90
16267;DHT22;8241;48.786;9.250;2023-04-01T07:52:50;10.10;99.90
16267;DHT22;8241;48.786;9.250;2023-04-01T07:55:23;10.10;99.90
16267;DHT22;8241;48.786;9.250;2023-04-01T07:57:57;10.10;99.90
16267;DHT22;8241;48.786;9.250;2023-04-01T08:00:30;10.20;99.90
16267;DHT22;8241;48.786;9.250;2023-04-01T08:03:12;10.30;99.90
16267;DHT22;8241;48.786;9.250;2023-04-01T08:05:46;10.30;99.90
16267;DHT22;8241;48.786;9.250;2023-04-01T08:08:18;10.30;99.90
16267;DHT22;8241;48.786;9.250;2023-04-01T08:11:06;10.30;99.90
16267;DHT22;8241;48.786;9.250;2023-04-01T08:13:56;10.30;99.90
16267;DHT22;8241;48.786;9.250;2023-04-01T08:16:50;10.30;99.90
16267;DHT22;8241;48.786;9.250;2023-04-01T08:19:28;10.30;99.90
16267;DHT22;8241;48.786;9.250;2023-04-01T08:21:58;10.30;99.90
16267;DHT22;8241;48.786;9.250;2023-04-01T08:24:33;10.30;99.90
16267;DHT22;8241;48.786;9.250;2023-04-01T08:27:01;10.30;99.90
16267;DHT22;8241;48.786;9.250;2023-04-01T08:29:33;10.40;99.90
16267;DHT22;8241;48.786;9.250;2023-04-01T08:32:03;10.40;99.90
16267;DHT22;8241;48.786;9.250;2023-04-01T08:34:32;10.40;99.90
16267;DHT22;8241;48.786;9.250;2023-04-01T08:37:02;10.50;99.90
16267;DHT22;8241;48.786;9.250;2023-04-01T08:39:31;10.50;99.90
16267;DHT22;8241;48.786;9.250;2023-04-01T08:42:12;10.50;99.90
16267;DHT22;8241;48.786;9.250;2023-04-01T08:45:11;10.50;99.90
16267;DHT22;8241;48.786;9.250;2023-04-01T08:47:51;10.50;99.90
16267;DHT22;8241;48.786;9.250;2023-04-01T08:50:28;10.40;99.90
16267;DHT22;8241;48.786;9.250;2023-04-01T08:53:08;10.40;99.90
16267;DHT22;8241;48.786;9.250;2023-04-01T08:55:43;10.30;99.90
16267;DHT22;8241;48.786;9.250;2023-04-01T09:01:47;10.10;99.90
16267;DHT22;8241;48.786;9.250;2023-04-01T09:04:51;10.00;99.90
16267;DHT22;8241;48.786;9.250;2023-04-01T09:07:29;9.80;99.90
16267;DHT22;8241;48.786;9.250;2023-04-01T09:12:51;9.80;99.90
16267;DHT22;8241;48.786;9.250;2023-04-01T09:18:30;9.80;99.90
16267;DHT22;8241;48.786;9.250;2023-04-01T09:24:11;9.80;99.90
16267;DHT22;8241;48.786;9.250;2023-04-01T09:26:46;9.80;99.90
16267;DHT22;8241;48.786;9.250;2023-04-01T09:29:24;9.80;99.90
16267;DHT22;8241;48.786;9.250;2023-04-01T09:31:59;9.80;99.90
16267;DHT22;8241;48.786;9.250;2023-04-01T09:37:35;9.90;99.90
16267;DHT22;8241;48.786;9.250;2023-04-01T09:40:13;10.00;99.90
16267;DHT22;8241;48.786;9.250;2023-04-01T09:42:52;10.00;99.90
16267;DHT22;8241;48.786;9.250;2023-04-01T09:45:30;10.10;99.90
16267;DHT22;8241;48.786;9.250;2023-04-01T09:48:05;10.20;99.90
16267;DHT22;8241;48.786;9.250;2023-04-01T09:50:38;10.20;99.90
16267;DHT22;8241;48.786;9.250;2023-04-01T09:53:17;10.30;99.90
16267;DHT22;8241;48.786;9.250;2023-04-01T09:58:56;10.40;99.90
16267;DHT22;8241;48.786;9.250;2023-04-01T10:04:46;10.40;99.90
16267;DHT22;8241;48.786;9.250;2023-04-01T10:18:21;10.40;99.90
16267;DHT22;8241;48.786;9.250;2023-04-01T10:21:12;10.30;99.90
16267;DHT22;8241;48.786;9.250;2023-04-01T10:23:47;10.30;99.90
16267;DHT22;8241;48.786;9.250;2023-04-01T10:26:29;10.40;99.90
16267;DHT22;8241;48.786;9.250;2023-04-01T10:29:48;10.40;99.90
16267;DHT22;8241;48.786;9.250;2023-04-01T10:35:07;10.50;99.90
16267;DHT22;8241;48.786;9.250;2023-04-01T10:37:53;10.50;99.90
16267;DHT22;8241;48.786;9.250;2023-04-01T10:40:31;10.60;99.90
16267;DHT22;8241;48.786;9.250;2023-04-01T10:43:40;10.70;99.90
16267;DHT22;8241;48.786;9.250;2023-04-01T10:49:17;10.70;99.90
16267;DHT22;8241;48.786;9.250;2023-04-01T10:52:06;10.80;99.90
16267;DHT22;8241;48.786;9.250;2023-04-01T10:55:00;10.80;99.90
16267;DHT22;8241;48.786;9.250;2023-04-01T10:58:24;10.80;99.90
16267;DHT22;8241;48.786;9.250;2023-04-01T11:01:27;10.80;99.90
16267;DHT22;8241;48.786;9.250;2023-04-01T11:15:56;10.80;99.90
16267;DHT22;8241;48.786;9.250;2023-04-01T11:21:26;10.90;99.90
16267;DHT22;8241;48.786;9.250;2023-04-01T11:24:13;10.90;99.90
16267;DHT22;8241;48.786;9.250;2023-04-01T11:26:56;11.00;99.90
16267;DHT22;8241;48.786;9.250;2023-04-01T11:29:51;11.00;99.90
16267;DHT22;8241;48.786;9.250;2023-04-01T11:32:31;11.10;99.90
16267;DHT22;8241;48.786;9.250;2023-04-01T11:35:12;11.30;99.90
16267;DHT22;8241;48.786;9.250;2023-04-01T11:37:48;11.40;99.90
16267;DHT22;8241;48.786;9.250;2023-04-01T11:40:37;11.60;99.90
16267;DHT22;8241;48.786;9.250;2023-04-01T11:43:33;11.70;99.90
16267;DHT22;8241;48.786;9.250;2023-04-01T11:46:27;11.70;99.90
16267;DHT22;8241;48.786;9.250;2023-04-01T11:49:05;11.80;99.90
16267;DHT22;8241;48.786;9.250;2023-04-01T11:54:25;11.90;99.90
16267;DHT22;8241;48.786;9.250;2023-04-01T11:57:01;11.90;99.90
16267;DHT22;8241;48.786;9.250;2023-04-01T12:02:16;11.80;99.90
16267;DHT22;8241;48.786;9.250;2023-04-01T12:05:00;11.80;99.90
16267;DHT22;8241;48.786;9.250;2023-04-01T12:07:41;11.70;99.90
16267;DHT22;8241;48.786;9.250;2023-04-01T12:10:14;11.70;99.90
16267;DHT22;8241;48.786;9.250;2023-04-01T12:12:43;11.70;99.90
16267;DHT22;8241;48.786;9.250;2023-04-01T12:15:16;11.60;99.90
16267;DHT22;8241;48.786;9.250;2023-04-01T12:17:45;11.60;99.90
16267;DHT22;8241;48.786;9.250;2023-04-01T12:20:22;11.50;99.90
16267;DHT22;8241;48.786;9.250;2023-04-01T12:22:53;11.60;99.90
16267;DHT22;8241;48.786;9.250;2023-04-01T12:25:25;11.50;99.90
16267;DHT22;8241;48.786;9.250;2023-04-01T12:27:57;11.40;99.90
16267;DHT22;8241;48.786;9.250;2023-04-01T12:33:21;11.30;99.90
16267;DHT22;8241;48.786;9.250;2023-04-01T12:35:58;11.30;99.90
16267;DHT22;8241;48.786;9.250;2023-04-01T12:38:30;11.30;99.90
16267;DHT22;8241;48.786;9.250;2023-04-01T12:44:00;11.30;99.90
16267;DHT22;8241;48.786;9.250;2023-04-01T12:46:32;11.30;99.90
16267;DHT22;8241;48.786;9.250;2023-04-01T12:49:12;11.40;99.90
16267;DHT22;8241;48.786;9.250;2023-04-01T12:51:57;11.50;99.90
16267;DHT22;8241;48.786;9.250;2023-04-01T13:00:10;11.60;99.90
16267;DHT22;8241;48.786;9.250;2023-04-01T13:02:40;11.70;99.90
16267;DHT22;8241;48.786;9.250;2023-04-01T13:05:15;11.80;99.90
16267;DHT22;8241;48.786;9.250;2023-04-01T13:07:58;11.80;99.90
16267;DHT22;8241;48.786;9.250;2023-04-01T13:10:36;11.90;99.90
16267;DHT22;8241;48.786;9.250;2023-04-01T13:13:16;12.00;99.90
16267;DHT22;8241;48.786;9.250;2023-04-01T13:15:48;12.00;99.90
16267;DHT22;8241;48.786;9.250;2023-04-01T13:18:24;12.00;99.90
16267;DHT22;8241;48.786;9.250;2023-04-01T13:20:57;12.00;99.90
16267;DHT22;8241;48.786;9.250;2023-04-01T13:23:34;11.90;99.90
16267;DHT22;8241;48.786;9.250;2023-04-01T13:26:05;11.80;99.90
16267;DHT22;8241;48.786;9.250;2023-04-01T13:28:34;11.80;99.90
16267;DHT22;8241;48.786;9.250;2023-04-01T13:31:05;11.80;99.90
16267;DHT22;8241;48.786;9.250;2023-04-01T13:33:36;11.80;99.90
16267;DHT22;8241;48.786;9.250;2023-04-01T13:36:13;11.90;99.90
16267;DHT22;8241;48.786;9.250;2023-04-01T13:41:33;11.90;99.90
16267;DHT22;8241;48.786;9.250;2023-04-01T13:44:02;11.90;99.80
16267;DHT22;8241;48.786;9.250;2023-04-01T13:46:36;11.90;99.90
16267;DHT22;8241;48.786;9.250;2023-04-01T13:49:13;11.90;99.90
16267;DHT22;8241;48.786;9.250;2023-04-01T13:51:52;12.00;99.90
16267;DHT22;8241;48.786;9.250;2023-04-01T13:57:15;12.10;99.40
16267;DHT22;8241;48.786;9.250;2023-04-01T13:59:55;12.10;99.90
16267;DHT22;8241;48.786;9.250;2023-04-01T14:02:31;12.10;99.40
16267;DHT22;8241;48.786;9.250;2023-04-01T14:05:09;12.10;99.30
16267;DHT22;8241;48.786;9.250;2023-04-01T14:07:48;12.10;99.70
16267;DHT22;8241;48.786;9.250;2023-04-01T14:10:20;12.10;99.50
16267;DHT22;8241;48.786;9.250;2023-04-01T14:12:55;12.20;99.70
16267;DHT22;8241;48.786;9.250;2023-04-01T14:21:03;12.10;98.80
16267;DHT22;8241;48.786;9.250;2023-04-01T14:23:35;12.10;99.80
16267;DHT22;8241;48.786;9.250;2023-04-01T14:26:07;12.20;99.70
16267;DHT22;8241;48.786;9.250;2023-04-01T14:28:39;12.10;98.80
16267;DHT22;8241;48.786;9.250;2023-04-01T14:31:19;12.00;99.40
16267;DHT22;8241;48.786;9.250;2023-04-01T14:33:52;12.00;99.70
16267;DHT22;8241;48.786;9.250;2023-04-01T14:39:23;11.80;99.90
16267;DHT22;8241;48.786;9.250;2023-04-01T14:41:58;11.70;99.90
16267;DHT22;8241;48.786;9.250;2023-04-01T14:44:35;11.70;99.90
16267;DHT22;8241;48.786;9.250;2023-04-01T14:47:20;11.70;99.90
16267;DHT22;8241;48.786;9.250;2023-04-01T14:49:52;11.60;99.90
16267;DHT22;8241;48.786;9.250;2023-04-01T14:52:22;11.60;99.90
16267;DHT22;8241;48.786;9.250;2023-04-01T14:54:51;11.60;99.90
16267;DHT22;8241;48.786;9.250;2023-04-01T14:57:22;11.50;99.90
16267;DHT22;8241;48.786;9.250;2023-04-01T14:59:51;11.50;99.90
16267;DHT22;8241;48.786;9.250;2023-04-01T15:02:42;11.50;99.90
16267;DHT22;8241;48.786;9.250;2023-04-01T15:05:15;11.50;99.90
16267;DHT22;8241;48.786;9.250;2023-04-01T15:10:44;11.50;99.90
16267;DHT22;8241;48.786;9.250;2023-04-01T15:13:14;11.60;99.90
16267;DHT22;8241;48.786;9.250;2023-04-01T15:15:48;11.60;99.90
16267;DHT22;8241;48.786;9.250;2023-04-01T15:18:18;11.60;99.90
16267;DHT22;8241;48.786;9.250;2023-04-01T15:23:41;11.50;99.90
16267;DHT22;8241;48.786;9.250;2023-04-01T15:26:14;11.60;99.90
16267;DHT22;8241;48.786;9.250;2023-04-01T15:28:45;11.60;99.90
16267;DHT22;8241;48.786;9.250;2023-04-01T15:31:15;11.60;99.90
16267;DHT22;8241;48.786;9.250;2023-04-01T15:33:46;11.60;99.90
16267;DHT22;8241;48.786;9.250;2023-04-01T15:36:18;11.60;99.90
16267;DHT22;8241;48.786;9.250;2023-04-01T15:38:48;11.60;99.90
16267;DHT22;8241;48.786;9.250;2023-04-01T15:41:16;11.60;99.90
16267;DHT22;8241;48.786;9.250;2023-04-01T15:43:44;11.60;99.90
16267;DHT22;8241;48.786;9.250;2023-04-01T15:46:18;11.60;99.90
16267;DHT22;8241;48.786;9.250;2023-04-01T15:48:49;11.60;99.90
16267;DHT22;8241;48.786;9.250;2023-04-01T15:51:24;11.60;99.90
16267;DHT22;8241;48.786;9.250;2023-04-01T15:56:44;11.60;99.90
16267;DHT22;8241;48.786;9.250;2023-04-01T15:59:18;11.60;99.90
16267;DHT22;8241;48.786;9.250;2023-04-01T16:01:50;11.60;99.90
16267;DHT22;8241;48.786;9.250;2023-04-01T16:04:27;11.50;99.90
16267;DHT22;8241;48.786;9.250;2023-04-01T16:07:02;11.50;99.90
16267;DHT22;8241;48.786;9.250;2023-04-01T16:09:36;11.50;99.90
16267;DHT22;8241;48.786;9.250;2023-04-01T16:12:12;11.50;99.90
16267;DHT22;8241;48.786;9.250;2023-04-01T16:14:44;11.50;99.90
16267;DHT22;8241;48.786;9.250;2023-04-01T16:17:25;11.50;99.90
16267;DHT22;8241;48.786;9.250;2023-04-01T16:19:55;11.50;99.90
16267;DHT22;8241;48.786;9.250;2023-04-01T16:22:23;11.50;99.90
16267;DHT22;8241;48.786;9.250;2023-04-01T16:24:53;11.50;99.90
16267;DHT22;8241;48.786;9.250;2023-04-01T16:27:24;11.50;99.90
16267;DHT22;8241;48.786;9.250;2023-04-01T16:29:55;11.50;99.90
16267;DHT22;8241;48.786;9.250;2023-04-01T16:32:31;11.50;99.90
16267;DHT22;8241;48.786;9.250;2023-04-01T16:35:16;11.40;99.90
16267;DHT22;8241;48.786;9.250;2023-04-01T16:38:05;11.40;99.90
16267;DHT22;8241;48.786;9.250;2023-04-01T16:40:37;11.40;99.90
16267;DHT22;8241;48.786;9.250;2023-04-01T16:43:10;11.40;99.90
16267;DHT22;8241;48.786;9.250;2023-04-01T16:45:39;11.40;99.90
16267;DHT22;8241;48.786;9.250;2023-04-01T16:48:11;11.40;99.90
16267;DHT22;8241;48.786;9.250;2023-04-01T16:50:49;11.40;99.90
16267;DHT22;8241;48.786;9.250;2023-04-01T16:53:18;11.30;99.90
16267;DHT22;8241;48.786;9.250;2023-04-01T16:55:47;11.30;99.90
16267;DHT22;8241;48.786;9.250;2023-04-01T16:58:18;11.30;99.90
16267;DHT22;8241;48.786;9.250;2023-04-01T17:00:47;11.40;99.90
16267;DHT22;8241;48.786;9.250;2023-04-01T17:03:16;11.40;99.90
16267;DHT22;8241;48.786;9.250;2023-04-01T17:05:49;11.40;99.90
16267;DHT22;8241;48.786;9.250;2023-04-01T17:08:21;11.40;99.90
16267;DHT22;8241;48.786;9.250;2023-04-01T17:10:51;11.40;99.90
16267;DHT22;8241;48.786;9.250;2023-04-01T17:13:24;11.30;99.90
16267;DHT22;8241;48.786;9.250;2023-04-01T17:15:55;11.30;99.90
16267;DHT22;8241;48.786;9.250;2023-04-01T17:18:26;11.40;99.90
16267;DHT22;8241;48.786;9.250;2023-04-01T17:20:58;11.30;99.90
16267;DHT22;8241;48.786;9.250;2023-04-01T17:23:27;11.40;99.90
16267;DHT22;8241;48.786;9.250;2023-04-01T17:26:00;11.40;99.90
16267;DHT22;8241;48.786;9.250;2023-04-01T17:28:34;11.40;99.90
16267;DHT22;8241;48.786;9.250;2023-04-01T17:31:06;11.40;99.90
16267;DHT22;8241;48.786;9.250;2023-04-01T17:33:47;11.40;99.90
16267;DHT22;8241;48.786;9.250;2023-04-01T17:36:24;11.40;99.90
16267;DHT22;8241;48.786;9.250;2023-04-01T17:39:07;11.40;99.90
16267;DHT22;8241;48.786;9.250;2023-04-01T17:41:41;11.40;99.90
16267;DHT22;8241;48.786;9.250;2023-04-01T17:47:07;11.40;99.90
16267;DHT22;8241;48.786;9.250;2023-04-01T17:49:42;11.40;99.90
16267;DHT22;8241;48.786;9.250;2023-04-01T17:52:14;11.40;99.90
16267;DHT22;8241;48.786;9.250;2023-04-01T17:54:45;11.50;99.90
16267;DHT22;8241;48.786;9.250;2023-04-01T17:57:24;11.40;99.90
16267;DHT22;8241;48.786;9.250;2023-04-01T17:59:55;11.40;99.90
16267;DHT22;8241;48.786;9.250;2023-04-01T18:02:28;11.40;99.90
16267;DHT22;8241;48.786;9.250;2023-04-01T18:05:20;11.40;99.90
16267;DHT22;8241;48.786;9.250;2023-04-01T18:07:53;11.40;99.90
16267;DHT22;8241;48.786;9.250;2023-04-01T18:10:28;11.40;99.90
16267;DHT22;8241;48.786;9.250;2023-04-01T18:13:13;11.40;99.90